Time;durP1;ratioP1;P1;durP2;ratioP2;P2;SDS_P1;SDS_P2;PMS_P1;PMS_P2;Temp;Humidity;BMP_temperature;BMP_pressure;BME280_temperature;BME280_humidity;BME280_pressure;Samples;Min_cycle;Max_cycle;Signal;HPM_P1;HPM_P2
2021/12/01 00:05:25;;;;;;;9.60;4.93;;;;;;;;;;21065562;28;20060;-59
2021/12/01 00:15:27;;;;;;;6.80;4.93;;;;;;;;;;21083590;28;20090;-59
2021/12/01 00:25:29;;;;;;;7.85;5.63;;;;;;;;;;21082735;28;20052;-59
2021/12/01 00:35:32;;;;;;;8.15;4.70;;;;;;;;;;21082050;28;20123;-60
2021/12/01 00:45:34;;;;;;;6.78;4.70;;;;;;;;;;21080734;28;20131;-59
2021/12/01 00:55:37;;;;;;;8.77;5.20;;;;;;;;;;21080502;28;20120;-60
2021/12/01 01:05:39;;;;;;;9.20;5.57;;;;;;;;;;21079281;28;20139;-63
2021/12/01 01:26:02;;;;;;;8.68;6.15;;;;;;;;;;21078979;28;20378;-58
2021/12/01 01:36:05;;;;;;;9.63;5.35;;;;;;;;;;21078485;28;20473;-59
2021/12/01 01:46:08;;;;;;;9.00;5.10;;;;;;;;;;21079465;28;20427;-59
2021/12/01 01:56:11;;;;;;;9.13;5.40;;;;;;;;;;21065046;28;20044;-58
2021/12/01 02:06:21;;;;;;;7.85;5.30;;;;;;;;;;21093611;28;20052;-59
2021/12/01 02:16:24;;;;;;;11.38;5.30;;;;;;;;;;21092792;28;20040;-58
2021/12/01 02:26:29;;;;;;;8.23;5.57;;;;;;;;;;21092235;28;20420;-59
2021/12/01 02:36:32;;;;;;;8.60;5.50;;;;;;;;;;21091726;28;20193;-60
2021/12/01 02:46:37;;;;;;;9.63;6.03;;;;;;;;;;21089728;28;20062;-59
2021/12/01 02:56:45;;;;;;;8.77;5.63;;;;;;;;;;21089688;28;20128;-58
2021/12/01 03:06:51;;;;;;;10.15;5.85;;;;;;;;;;21087231;28;20056;-58
2021/12/01 03:16:54;;;;;;;7.78;5.30;;;;;;;;;;21088335;28;20048;-58
2021/12/01 03:26:58;;;;;;;7.32;4.97;;;;;;;;;;21087058;28;20059;-60
2021/12/01 03:37:03;;;;;;;7.30;5.50;;;;;;;;;;21085948;28;20044;-60
2021/12/01 03:47:07;;;;;;;8.25;5.43;;;;;;;;;;21085116;28;20400;-59
2021/12/01 03:57:13;;;;;;;9.30;5.68;;;;;;;;;;21084150;28;20044;-59
2021/12/01 04:07:19;;;;;;;10.32;6.40;;;;;;;;;;21083283;28;20143;-59
2021/12/01 04:17:39;;;;;;;8.90;6.93;;;;;;;;;;21081884;28;20080;-59
2021/12/01 04:27:53;;;;;;;8.52;6.57;;;;;;;;;;21081792;28;20504;-58
2021/12/01 04:38:05;;;;;;;8.65;5.97;;;;;;;;;;21064848;28;20044;-59
2021/12/01 04:48:28;;;;;;;7.85;5.97;;;;;;;;;;21079824;28;20503;-59
2021/12/01 04:58:50;;;;;;;7.88;6.05;;;;;;;;;;21080651;28;20044;-59
2021/12/01 05:09:12;;;;;;;9.77;5.85;;;;;;;;;;21078957;28;20052;-59
2021/12/01 05:19:28;;;;;;;;;;;;;;;;;;21078868;28;20051;-59
2021/12/01 05:29:32;;;;;;;8.80;6.25;;;;;;;;;;21083187;28;19919;-59
2021/12/01 05:39:41;;;;;;;12.97;7.03;;;;;;;;;;21095305;28;20044;-58
2021/12/01 05:49:46;;;;;;;9.02;6.00;;;;;;;;;;21094153;28;20134;-58
2021/12/01 05:59:51;;;;;;;8.98;5.85;;;;;;;;;;21093481;28;20051;-59
2021/12/01 06:09:54;;;;;;;9.00;6.05;;;;;;;;;;21092997;28;20397;-60
2021/12/01 06:19:57;;;;;;;11.40;7.03;;;;;;;;;;21092483;28;20055;-60
2021/12/01 06:29:59;;;;;;;10.82;6.63;;;;;;;;;;21073018;28;20052;-61
2021/12/01 06:40:02;;;;;;;12.20;6.63;;;;;;;;;;21090418;28;20507;-62
2021/12/01 06:50:08;;;;;;;13.20;7.45;;;;;;;;;;21089661;28;20382;-61
2021/12/01 07:00:12;;;;;;;13.07;9.40;;;;;;;;;;21089248;28;20127;-60
2021/12/01 07:10:17;;;;;;;9.07;6.67;;;;;;;;;;21088236;28;20059;-59
2021/12/01 07:20:20;;;;;;;15.65;8.05;;;;;;;;;;21087689;28;20044;-59
2021/12/01 07:30:23;;;;;;;21.85;12.07;;;;;;;;;;21085640;28;20056;-59
2021/12/01 07:40:26;;;;;;;20.45;9.93;;;;;;;;;;21085510;28;20377;-59
2021/12/01 07:50:30;;;;;;;22.48;12.27;;;;;;;;;;21084229;28;20051;-59
2021/12/01 08:00:33;;;;;;;25.98;12.90;;;;;;;;;;21083497;28;20044;-58
2021/12/01 08:10:37;;;;;;;31.25;17.17;;;;;;;;;;21083908;28;20131;-59
2021/12/01 08:20:40;;;;;;;31.83;16.10;;;;;;;;;;21082806;28;20052;-58
2021/12/01 08:30:42;;;;;;;28.92;17.42;;;;;;;;;;21081725;28;20052;-59
2021/12/01 08:40:44;;;;;;;26.95;17.13;;;;;;;;;;21080357;28;20073;-59
2021/12/01 08:50:47;;;;;;;35.17;18.98;;;;;;;;;;21079930;28;20100;-59
2021/12/01 09:00:49;;;;;;;33.05;19.05;;;;;;;;;;21079647;28;20297;-58
2021/12/01 09:10:54;;;;;;;30.77;18.33;;;;;;;;;;21079165;28;20047;-59
2021/12/01 09:20:58;;;;;;;30.33;18.27;;;;;;;;;;21078418;28;20495;-59
2021/12/01 09:31:00;;;;;;;29.25;16.67;;;;;;;;;;21077817;28;20459;-59
2021/12/01 09:41:05;;;;;;;33.58;18.23;;;;;;;;;;21077550;28;20090;-59
2021/12/01 09:51:07;;;;;;;35.38;19.08;;;;;;;;;;21076908;28;20480;-58
2021/12/01 10:01:12;;;;;;;28.95;17.08;;;;;;;;;;21076255;28;20136;-58
2021/12/01 10:11:34;;;;;;;23.15;14.07;;;;;;;;;;21076810;28;20476;-59
2021/12/01 10:21:38;;;;;;;16.45;9.65;;;;;;;;;;21088429;28;20183;-57
2021/12/01 10:31:41;;;;;;;25.02;15.95;;;;;;;;;;21091309;28;20055;-59
2021/12/01 10:41:43;;;;;;;24.23;14.80;;;;;;;;;;21090172;28;20048;-59
2021/12/01 10:51:48;;;;;;;37.17;23.20;;;;;;;;;;21089451;28;20434;-56
2021/12/01 11:02:09;;;;;;;24.52;15.30;;;;;;;;;;21086617;28;20055;-53
2021/12/01 11:12:11;;;;;;;18.95;11.20;;;;;;;;;;21083232;28;20105;-53
2021/12/01 11:22:28;;;;;;;40.67;22.00;;;;;;;;;;21086221;28;20489;-54
2021/12/01 11:32:30;;;;;;;34.00;18.50;;;;;;;;;;21083964;28;20206;-55
2021/12/01 11:42:33;;;;;;;40.25;21.98;;;;;;;;;;21085274;28;20543;-54
2021/12/01 11:52:42;;;;;;;30.45;20.92;;;;;;;;;;21083622;28;20082;-55
2021/12/01 12:02:44;;;;;;;34.78;22.10;;;;;;;;;;21112933;28;20044;-55
2021/12/01 12:12:49;;;;;;;34.20;21.63;;;;;;;;;;21166973;28;20054;-56
2021/12/01 12:22:52;;;;;;;24.70;16.90;;;;;;;;;;21167275;28;20122;-58
2021/12/01 12:33:26;;;;;;;30.40;17.10;;;;;;;;;;21166137;28;20086;-58
2021/12/01 12:43:32;;;;;;;6.60;3.17;;;;;;;;;;20740620;28;20068;-58
2021/12/01 12:53:36;;;;;;;9.30;4.00;;;;;;;;;;20741266;28;20134;-59
2021/12/01 13:03:38;;;;;;;8.88;5.03;;;;;;;;;;20782436;28;20089;-58
2021/12/01 13:13:41;;;;;;;7.20;4.03;;;;;;;;;;20890200;28;20541;-57
2021/12/01 13:23:45;;;;;;;6.03;3.40;;;;;;;;;;21080439;28;20423;-56
2021/12/01 13:33:53;;;;;;;5.60;3.40;;;;;;;;;;21078395;28;20499;-59
2021/12/01 13:44:03;;;;;;;8.95;4.03;;;;;;;;;;21101833;28;20073;-58
2021/12/01 13:54:32;;;;;;;5.55;3.78;;;;;;;;;;21170938;28;20062;-57
2021/12/01 14:04:36;;;;;;;7.88;4.80;;;;;;;;;;21227599;27;20051;-60
2021/12/01 14:14:38;;;;;;;7.53;5.05;;;;;;;;;;21262963;27;20504;-59
2021/12/01 14:25:00;;;;;;;9.40;5.20;;;;;;;;;;21261699;27;20043;-58
2021/12/01 14:35:04;;;;;;;7.05;5.13;;;;;;;;;;21261116;27;20484;-58
2021/12/01 14:45:08;;;;;;;9.63;5.03;;;;;;;;;;21259712;27;20092;-58
2021/12/01 14:55:16;;;;;;;12.02;6.15;;;;;;;;;;21259042;27;20044;-58
2021/12/01 15:05:22;;;;;;;8.40;6.07;;;;;;;;;;21257670;27;20058;-57
2021/12/01 15:15:28;;;;;;;8.23;6.22;;;;;;;;;;21257960;27;20054;-59
2021/12/01 15:25:33;;;;;;;9.52;6.03;;;;;;;;;;21256921;27;20051;-58
2021/12/01 15:35:36;;;;;;;8.70;5.33;;;;;;;;;;21255939;27;20043;-57
2021/12/01 15:45:39;;;;;;;5.80;4.25;;;;;;;;;;21254970;27;20403;-57
2021/12/01 15:55:42;;;;;;;7.60;4.13;;;;;;;;;;21253859;27;20047;-63
2021/12/01 16:05:44;;;;;;;8.00;4.30;;;;;;;;;;21253346;27;20059;-56
2021/12/01 16:15:47;;;;;;;6.43;4.40;;;;;;;;;;21198338;27;20050;-65
2021/12/01 16:25:51;;;;;;;10.77;7.38;;;;;;;;;;21161311;27;20044;-67
2021/12/01 16:35:54;;;;;;;11.33;5.07;;;;;;;;;;21164642;28;20046;-56
2021/12/01 16:45:56;;;;;;;10.20;4.68;;;;;;;;;;21163575;28;20105;-74
2021/12/01 16:56:00;;;;;;;12.00;5.80;;;;;;;;;;21166329;28;20052;-62
2021/12/01 17:06:07;;;;;;;10.57;6.20;;;;;;;;;;21138820;28;20077;-68
2021/12/01 17:16:10;;;;;;;9.07;5.43;;;;;;;;;;21163200;28;20533;-67
2021/12/01 17:26:15;;;;;;;9.07;5.53;;;;;;;;;;21164900;28;20099;-73
2021/12/01 17:36:19;;;;;;;27.30;20.92;;;;;;;;;;21145390;28;20071;-61
2021/12/01 17:46:21;;;;;;;8.23;4.93;;;;;;;;;;21162484;28;20130;-54
2021/12/01 17:56:26;;;;;;;6.90;3.72;;;;;;;;;;21161704;28;20411;-56
2021/12/01 18:06:28;;;;;;;11.05;5.53;;;;;;;;;;21160870;28;20052;-70
2021/12/01 18:16:32;;;;;;;5.53;3.33;;;;;;;;;;21140343;28;20082;-56
2021/12/01 18:26:35;;;;;;;6.47;4.30;;;;;;;;;;21158082;28;20058;-58
2021/12/01 18:36:37;;;;;;;8.32;4.68;;;;;;;;;;21160477;28;20071;-55
2021/12/01 18:46:43;;;;;;;7.97;5.43;;;;;;;;;;21172035;28;20085;-61
2021/12/01 18:56:45;;;;;;;10.07;7.72;;;;;;;;;;21173655;28;20500;-61
2021/12/01 19:06:48;;;;;;;8.45;5.90;;;;;;;;;;21171678;28;20134;-58
2021/12/01 19:16:50;;;;;;;7.90;5.70;;;;;;;;;;21152438;28;20052;-59
2021/12/01 19:26:53;;;;;;;10.10;6.53;;;;;;;;;;21169846;28;20214;-58
2021/12/01 19:36:56;;;;;;;10.23;6.15;;;;;;;;;;21168609;28;20127;-59
2021/12/01 19:46:59;;;;;;;13.82;7.40;;;;;;;;;;21166810;28;20440;-58
2021/12/01 19:57:01;;;;;;;7.68;4.90;;;;;;;;;;21167960;28;20093;-59
2021/12/01 20:07:04;;;;;;;8.45;5.75;;;;;;;;;;21168198;28;20504;-59
2021/12/01 20:17:06;;;;;;;7.35;5.45;;;;;;;;;;21167586;28;20043;-59
2021/12/01 20:27:08;;;;;;;9.25;6.03;;;;;;;;;;21167161;28;20536;-58
2021/12/01 20:37:13;;;;;;;13.95;9.05;;;;;;;;;;21165772;28;20044;-58
2021/12/01 21:07:21;;;;;;;9.75;5.90;;;;;;;;;;21163627;28;20100;-59
2021/12/01 21:17:23;;;;;;;11.20;5.50;;;;;;;;;;21163755;28;20132;-58
2021/12/01 21:27:26;;;;;;;7.50;4.32;;;;;;;;;;21164307;28;20116;-61
2021/12/01 21:37:28;;;;;;;9.68;4.53;;;;;;;;;;21164007;28;20048;-60
2021/12/01 21:47:30;;;;;;;6.10;2.55;;;;;;;;;;21161736;28;20083;-58
2021/12/01 21:57:34;;;;;;;8.52;4.15;;;;;;;;;;21161050;28;20108;-58
2021/12/01 22:07:37;;;;;;;5.63;2.80;;;;;;;;;;21143205;28;20055;-57
2021/12/01 22:17:41;;;;;;;10.18;3.85;;;;;;;;;;21174556;28;20508;-57
2021/12/01 22:27:45;;;;;;;5.95;2.85;;;;;;;;;;21176415;28;20089;-58
2021/12/01 22:37:48;;;;;;;5.38;1.80;;;;;;;;;;21176687;28;20125;-59
2021/12/01 22:47:52;;;;;;;5.18;2.45;;;;;;;;;;21174825;28;20415;-60
2021/12/01 22:57:55;;;;;;;6.63;2.67;;;;;;;;;;21174794;28;20083;-59
2021/12/01 23:07:59;;;;;;;6.43;2.30;;;;;;;;;;21093476;28;20063;-58
2021/12/01 23:18:01;;;;;;;3.70;1.77;;;;;;;;;;21088388;28;20404;-57
2021/12/01 23:28:04;;;;;;;4.63;1.75;;;;;;;;;;21068324;28;20052;-58
2021/12/01 23:38:08;;;;;;;2.95;1.30;;;;;;;;;;21087122;28;20492;-57
2021/12/01 23:48:19;;;;;;;5.75;2.22;;;;;;;;;;21085429;28;20086;-58
2021/12/01 23:58:21;;;;;;;4.22;1.60;;;;;;;;;;21085210;28;20048;-58
